sensor_id;sensor_type;location;lat;lon;timestamp;pressure;altitude;pressure_sealevel;temperature;humidity
69318;BME280;56457;52.190;4.440;2023-03-14T00:01:07;98876.78;;;10.35;100.00
69318;BME280;56457;52.190;4.440;2023-03-14T00:02:07;98866.38;;;10.34;100.00
69318;BME280;56457;52.190;4.440;2023-03-14T00:03:07;98869.06;;;10.32;100.00
69318;BME280;56457;52.190;4.440;2023-03-14T00:04:08;98866.53;;;10.29;100.00
69318;BME280;56457;52.190;4.440;2023-03-14T00:05:08;98873.50;;;10.30;100.00
69318;BME280;56457;52.190;4.440;2023-03-14T00:06:09;98873.44;;;10.32;100.00
69318;BME280;56457;52.190;4.440;2023-03-14T00:07:10;98868.25;;;10.30;100.00
69318;BME280;56457;52.190;4.440;2023-03-14T00:08:10;98863.91;;;10.29;100.00
69318;BME280;56457;52.190;4.440;2023-03-14T00:09:11;98852.53;;;10.30;100.00
69318;BME280;56457;52.190;4.440;2023-03-14T00:10:12;98853.28;;;10.34;100.00
69318;BME280;56457;52.190;4.440;2023-03-14T00:11:15;98854.28;;;10.30;100.00
69318;BME280;56457;52.190;4.440;2023-03-14T00:12:16;98850.59;;;10.35;100.00
69318;BME280;56457;52.190;4.440;2023-03-14T00:13:16;98853.34;;;10.32;100.00
69318;BME280;56457;52.190;4.440;2023-03-14T00:14:16;98846.31;;;10.33;100.00
69318;BME280;56457;52.190;4.440;2023-03-14T00:15:16;98858.50;;;10.34;100.00
69318;BME280;56457;52.190;4.440;2023-03-14T00:16:17;98857.72;;;10.32;100.00
69318;BME280;56457;52.190;4.440;2023-03-14T00:17:17;98859.44;;;10.33;100.00
69318;BME280;56457;52.190;4.440;2023-03-14T00:18:18;98854.13;;;10.34;100.00
69318;BME280;56457;52.190;4.440;2023-03-14T00:19:19;98853.19;;;10.35;100.00
69318;BME280;56457;52.190;4.440;2023-03-14T00:20:20;98841.75;;;10.38;100.00
69318;BME280;56457;52.190;4.440;2023-03-14T00:21:20;98864.53;;;10.36;100.00
69318;BME280;56457;52.190;4.440;2023-03-14T00:22:20;98835.03;;;10.31;100.00
69318;BME280;56457;52.190;4.440;2023-03-14T00:23:21;98852.47;;;10.32;100.00
69318;BME280;56457;52.190;4.440;2023-03-14T00:24:21;98843.09;;;10.26;100.00
69318;BME280;56457;52.190;4.440;2023-03-14T00:25:22;98848.13;;;10.31;100.00
69318;BME280;56457;52.190;4.440;2023-03-14T00:26:22;98866.47;;;10.31;100.00
69318;BME280;56457;52.190;4.440;2023-03-14T00:27:22;98866.81;;;10.21;100.00
69318;BME280;56457;52.190;4.440;2023-03-14T00:28:23;98864.97;;;10.25;100.00
69318;BME280;56457;52.190;4.440;2023-03-14T00:29:23;98874.66;;;10.21;100.00
69318;BME280;56457;52.190;4.440;2023-03-14T00:30:23;98867.66;;;10.22;100.00
69318;BME280;56457;52.190;4.440;2023-03-14T00:31:23;98871.13;;;10.22;100.00
69318;BME280;56457;52.190;4.440;2023-03-14T00:32:24;98878.13;;;10.22;100.00
69318;BME280;56457;52.190;4.440;2023-03-14T00:33:24;98882.59;;;10.20;100.00
69318;BME280;56457;52.190;4.440;2023-03-14T00:34:28;98878.22;;;10.20;100.00
69318;BME280;56457;52.190;4.440;2023-03-14T00:35:28;98882.63;;;10.18;100.00
69318;BME280;56457;52.190;4.440;2023-03-14T00:36:28;98880.13;;;10.15;100.00
69318;BME280;56457;52.190;4.440;2023-03-14T00:37:29;98894.09;;;10.16;100.00
69318;BME280;56457;52.190;4.440;2023-03-14T00:38:29;98908.16;;;10.13;100.00
69318;BME280;56457;52.190;4.440;2023-03-14T00:39:30;98904.63;;;10.14;100.00
69318;BME280;56457;52.190;4.440;2023-03-14T00:40:30;98885.53;;;10.11;100.00
69318;BME280;56457;52.190;4.440;2023-03-14T00:41:30;98894.47;;;10.05;100.00
69318;BME280;56457;52.190;4.440;2023-03-14T00:42:31;98894.47;;;10.05;100.00
69318;BME280;56457;52.190;4.440;2023-03-14T00:43:32;98888.34;;;10.06;100.00
69318;BME280;56457;52.190;4.440;2023-03-14T00:44:32;98887.47;;;10.06;100.00
69318;BME280;56457;52.190;4.440;2023-03-14T00:45:33;98877.06;;;10.04;100.00
69318;BME280;56457;52.190;4.440;2023-03-14T00:46:33;98882.28;;;10.04;100.00
69318;BME280;56457;52.190;4.440;2023-03-14T00:47:33;98886.69;;;10.04;100.00
69318;BME280;56457;52.190;4.440;2023-03-14T00:48:33;98883.38;;;9.98;100.00
69318;BME280;56457;52.190;4.440;2023-03-14T00:49:34;98888.50;;;10.02;100.00
69318;BME280;56457;52.190;4.440;2023-03-14T00:50:34;98883.28;;;10.02;100.00
69318;BME280;56457;52.190;4.440;2023-03-14T00:51:34;98885.25;;;9.95;100.00
69318;BME280;56457;52.190;4.440;2023-03-14T00:52:35;98886.41;;;9.88;100.00
69318;BME280;56457;52.190;4.440;2023-03-14T00:53:35;98888.78;;;9.94;100.00
69318;BME280;56457;52.190;4.440;2023-03-14T00:54:36;98892.50;;;9.88;100.00
69318;BME280;56457;52.190;4.440;2023-03-14T00:55:39;98899.66;;;9.83;100.00
69318;BME280;56457;52.190;4.440;2023-03-14T00:56:40;98894.19;;;9.89;100.00
69318;BME280;56457;52.190;4.440;2023-03-14T00:57:40;98889.03;;;9.88;100.00
69318;BME280;56457;52.190;4.440;2023-03-14T00:58:40;98900.50;;;9.84;100.00
69318;BME280;56457;52.190;4.440;2023-03-14T00:59:40;98900.28;;;9.90;100.00
69318;BME280;56457;52.190;4.440;2023-03-14T01:00:41;98880.34;;;9.86;100.00
69318;BME280;56457;52.190;4.440;2023-03-14T01:01:41;98890.97;;;9.81;100.00
69318;BME280;56457;52.190;4.440;2023-03-14T01:02:42;98890.97;;;9.81;100.00
69318;BME280;56457;52.190;4.440;2023-03-14T01:03:42;98890.13;;;9.81;100.00
69318;BME280;56457;52.190;4.440;2023-03-14T01:04:42;98903.19;;;9.82;100.00
69318;BME280;56457;52.190;4.440;2023-03-14T01:05:43;98901.44;;;9.81;100.00
69318;BME280;56457;52.190;4.440;2023-03-14T01:06:43;98883.19;;;9.80;100.00
69318;BME280;56457;52.190;4.440;2023-03-14T01:07:43;98899.72;;;9.82;100.00
69318;BME280;56457;52.190;4.440;2023-03-14T01:08:44;98879.97;;;9.71;100.00
69318;BME280;56457;52.190;4.440;2023-03-14T01:09:45;98893.78;;;9.77;100.00
69318;BME280;56457;52.190;4.440;2023-03-14T01:10:45;98901.56;;;9.78;100.00
69318;BME280;56457;52.190;4.440;2023-03-14T01:11:45;98899.97;;;9.74;100.00
69318;BME280;56457;52.190;4.440;2023-03-14T01:12:46;98905.03;;;9.79;100.00
69318;BME280;56457;52.190;4.440;2023-03-14T01:13:46;98898.88;;;9.80;100.00
69318;BME280;56457;52.190;4.440;2023-03-14T01:14:47;98917.41;;;9.75;100.00
69318;BME280;56457;52.190;4.440;2023-03-14T01:15:47;98911.97;;;9.80;100.00
69318;BME280;56457;52.190;4.440;2023-03-14T01:16:47;98890.25;;;9.78;100.00
69318;BME280;56457;52.190;4.440;2023-03-14T01:17:47;98909.31;;;9.81;100.00
69318;BME280;56457;52.190;4.440;2023-03-14T01:18:48;98903.22;;;9.81;100.00
69318;BME280;56457;52.190;4.440;2023-03-14T01:19:48;98911.19;;;9.78;100.00
69318;BME280;56457;52.190;4.440;2023-03-14T01:20:49;98896.22;;;9.81;100.00
69318;BME280;56457;52.190;4.440;2023-03-14T01:21:49;98902.56;;;9.76;100.00
69318;BME280;56457;52.190;4.440;2023-03-14T01:22:49;98894.69;;;9.76;100.00
69318;BME280;56457;52.190;4.440;2023-03-14T01:23:50;98887.72;;;9.75;100.00
69318;BME280;56457;52.190;4.440;2023-03-14T01:24:50;98887.72;;;9.75;100.00
69318;BME280;56457;52.190;4.440;2023-03-14T01:25:50;98895.53;;;9.76;100.00
69318;BME280;56457;52.190;4.440;2023-03-14T01:26:51;98900.78;;;9.76;100.00
69318;BME280;56457;52.190;4.440;2023-03-14T01:27:51;98886.63;;;9.82;100.00
69318;BME280;56457;52.190;4.440;2023-03-14T01:28:52;98879.94;;;9.73;100.00
69318;BME280;56457;52.190;4.440;2023-03-14T01:29:52;98886.78;;;9.77;100.00
69318;BME280;56457;52.190;4.440;2023-03-14T01:30:53;98880.50;;;9.81;100.00
69318;BME280;56457;52.190;4.440;2023-03-14T01:31:53;98882.25;;;9.81;100.00
69318;BME280;56457;52.190;4.440;2023-03-14T01:32:53;98877.03;;;9.81;100.00
69318;BME280;56457;52.190;4.440;2023-03-14T01:33:53;98884.09;;;9.79;100.00
69318;BME280;56457;52.190;4.440;2023-03-14T01:34:54;98873.56;;;9.80;100.00
69318;BME280;56457;52.190;4.440;2023-03-14T01:35:54;98880.41;;;9.84;100.00
69318;BME280;56457;52.190;4.440;2023-03-14T01:36:54;98874.31;;;9.84;100.00
69318;BME280;56457;52.190;4.440;2023-03-14T01:37:55;98880.13;;;9.92;100.00
69318;BME280;56457;52.190;4.440;2023-03-14T01:38:55;98881.94;;;9.90;100.00
69318;BME280;56457;52.190;4.440;2023-03-14T01:39:55;98883.66;;;9.91;100.00
69318;BME280;56457;52.190;4.440;2023-03-14T01:40:55;98875.91;;;9.88;100.00
69318;BME280;56457;52.190;4.440;2023-03-14T01:41:56;98884.41;;;9.94;100.00
69318;BME280;56457;52.190;4.440;2023-03-14T01:42:56;98894.91;;;9.93;100.00
69318;BME280;56457;52.190;4.440;2023-03-14T01:43:57;98888.81;;;9.92;100.00
69318;BME280;56457;52.190;4.440;2023-03-14T01:44:58;98891.66;;;9.86;100.00
69318;BME280;56457;52.190;4.440;2023-03-14T01:47:06;98890.59;;;9.92;100.00
69318;BME280;56457;52.190;4.440;2023-03-14T01:48:06;98885.47;;;9.89;100.00
69318;BME280;56457;52.190;4.440;2023-03-14T01:50:08;98883.78;;;9.88;100.00
69318;BME280;56457;52.190;4.440;2023-03-14T01:51:18;98888.81;;;9.92;100.00
69318;BME280;56457;52.190;4.440;2023-03-14T01:52:22;98899.31;;;9.92;100.00
69318;BME280;56457;52.190;4.440;2023-03-14T01:53:23;98879.09;;;9.96;100.00
69318;BME280;56457;52.190;4.440;2023-03-14T01:55:30;98876.56;;;9.94;100.00
69318;BME280;56457;52.190;4.440;2023-03-14T01:56:30;98877.44;;;9.93;100.00
69318;BME280;56457;52.190;4.440;2023-03-14T01:57:41;98882.50;;;9.98;100.00
69318;BME280;56457;52.190;4.440;2023-03-14T01:58:45;98872.19;;;9.93;100.00
69318;BME280;56457;52.190;4.440;2023-03-14T01:59:51;98874.59;;;9.99;100.00
69318;BME280;56457;52.190;4.440;2023-03-14T02:00:53;98869.47;;;9.96;100.00
69318;BME280;56457;52.190;4.440;2023-03-14T02:01:54;98857.06;;;10.02;100.00
69318;BME280;56457;52.190;4.440;2023-03-14T02:02:56;98862.31;;;10.02;100.00
69318;BME280;56457;52.190;4.440;2023-03-14T02:03:59;98851.09;;;9.98;100.00
69318;BME280;56457;52.190;4.440;2023-03-14T02:05:01;98861.47;;;10.01;100.00
69318;BME280;56457;52.190;4.440;2023-03-14T02:06:04;98857.06;;;10.02;100.00
69318;BME280;56457;52.190;4.440;2023-03-14T02:07:13;98869.25;;;10.03;100.00
69318;BME280;56457;52.190;4.440;2023-03-14T02:08:17;98854.28;;;10.06;100.00
69318;BME280;56457;52.190;4.440;2023-03-14T02:09:19;98856.09;;;10.04;100.00
69318;BME280;56457;52.190;4.440;2023-03-14T02:10:21;98856.09;;;10.04;100.00
69318;BME280;56457;52.190;4.440;2023-03-14T02:11:23;98849.94;;;10.05;100.00
69318;BME280;56457;52.190;4.440;2023-03-14T02:12:26;98849.00;;;10.08;100.00
69318;BME280;56457;52.190;4.440;2023-03-14T02:13:27;98851.69;;;10.06;100.00
69318;BME280;56457;52.190;4.440;2023-03-14T02:14:32;98860.31;;;10.08;100.00
69318;BME280;56457;52.190;4.440;2023-03-14T02:15:33;98856.66;;;10.12;100.00
69318;BME280;56457;52.190;4.440;2023-03-14T02:16:34;98848.13;;;10.07;100.00
69318;BME280;56457;52.190;4.440;2023-03-14T02:17:35;98856.72;;;10.11;100.00
69318;BME280;56457;52.190;4.440;2023-03-14T02:18:35;98853.19;;;10.12;100.00
69318;BME280;56457;52.190;4.440;2023-03-14T02:19:40;98850.56;;;10.12;100.00
69318;BME280;56457;52.190;4.440;2023-03-14T02:20:49;98858.25;;;10.16;100.00
69318;BME280;56457;52.190;4.440;2023-03-14T02:22:00;98839.00;;;10.17;100.00
69318;BME280;56457;52.190;4.440;2023-03-14T02:23:02;98842.53;;;10.16;100.00
69318;BME280;56457;52.190;4.440;2023-03-14T02:27:16;98840.66;;;10.20;100.00
69318;BME280;56457;52.190;4.440;2023-03-14T02:27:51;98833.66;;;10.20;100.00
69318;BME280;56457;52.190;4.440;2023-03-14T02:28:51;98820.56;;;10.20;100.00
69318;BME280;56457;52.190;4.440;2023-03-14T02:30:53;98830.13;;;10.21;100.00
69318;BME280;56457;52.190;4.440;2023-03-14T02:31:53;98834.41;;;10.24;100.00
69318;BME280;56457;52.190;4.440;2023-03-14T02:32:55;98830.00;;;10.24;100.00
69318;BME280;56457;52.190;4.440;2023-03-14T02:33:57;98834.13;;;10.32;100.00
69318;BME280;56457;52.190;4.440;2023-03-14T02:34:58;98825.53;;;10.28;100.00
69318;BME280;56457;52.190;4.440;2023-03-14T02:36:00;98835.25;;;10.24;100.00
69318;BME280;56457;52.190;4.440;2023-03-14T02:37:01;98829.25;;;10.21;100.00
69318;BME280;56457;52.190;4.440;2023-03-14T02:38:04;98823.25;;;10.19;100.00
69318;BME280;56457;52.190;4.440;2023-03-14T02:39:27;98829.34;;;10.19;100.00
69318;BME280;56457;52.190;4.440;2023-03-14T02:40:30;98833.59;;;10.22;100.00
69318;BME280;56457;52.190;4.440;2023-03-14T02:41:30;98840.47;;;10.26;100.00
69318;BME280;56457;52.190;4.440;2023-03-14T02:42:30;98840.50;;;10.24;100.00
69318;BME280;56457;52.190;4.440;2023-03-14T02:43:31;98833.53;;;10.25;100.00
69318;BME280;56457;52.190;4.440;2023-03-14T02:44:31;98839.53;;;10.27;100.00
69318;BME280;56457;52.190;4.440;2023-03-14T02:45:36;98843.13;;;10.24;100.00
69318;BME280;56457;52.190;4.440;2023-03-14T02:46:37;98830.94;;;10.23;100.00
69318;BME280;56457;52.190;4.440;2023-03-14T02:47:39;98838.63;;;10.28;100.00
69318;BME280;56457;52.190;4.440;2023-03-14T02:48:55;98829.97;;;10.26;100.00
69318;BME280;56457;52.190;4.440;2023-03-14T02:49:59;98822.06;;;10.28;100.00
69318;BME280;56457;52.190;4.440;2023-03-14T02:51:01;98827.06;;;10.34;100.00
69318;BME280;56457;52.190;4.440;2023-03-14T02:52:02;98827.28;;;10.28;100.00
69318;BME280;56457;52.190;4.440;2023-03-14T02:53:02;98817.72;;;10.27;100.00
69318;BME280;56457;52.190;4.440;2023-03-14T02:54:03;98820.44;;;10.23;100.00
69318;BME280;56457;52.190;4.440;2023-03-14T02:55:03;98820.44;;;10.23;100.00
69318;BME280;56457;52.190;4.440;2023-03-14T02:56:04;98827.38;;;10.26;100.00
69318;BME280;56457;52.190;4.440;2023-03-14T02:57:04;98823.75;;;10.29;100.00
69318;BME280;56457;52.190;4.440;2023-03-14T02:58:04;98815.13;;;10.27;100.00
69318;BME280;56457;52.190;4.440;2023-03-14T02:59:05;98820.44;;;10.23;100.00
69318;BME280;56457;52.190;4.440;2023-03-14T03:00:05;98815.03;;;10.28;100.00
69318;BME280;56457;52.190;4.440;2023-03-14T03:01:06;98821.13;;;10.29;100.00
69318;BME280;56457;52.190;4.440;2023-03-14T03:02:06;98809.97;;;10.23;100.00
69318;BME280;56457;52.190;4.440;2023-03-14T03:03:09;98822.06;;;10.28;100.00
69318;BME280;56457;52.190;4.440;2023-03-14T03:04:09;98812.41;;;10.28;100.00
69318;BME280;56457;52.190;4.440;2023-03-14T03:05:09;98823.75;;;10.29;100.00
69318;BME280;56457;52.190;4.440;2023-03-14T03:06:10;98822.81;;;10.31;100.00
69318;BME280;56457;52.190;4.440;2023-03-14T03:07:10;98802.78;;;10.29;100.00
69318;BME280;56457;52.190;4.440;2023-03-14T03:08:10;98813.41;;;10.26;100.00
69318;BME280;56457;52.190;4.440;2023-03-14T03:09:11;98809.97;;;10.23;100.00
69318;BME280;56457;52.190;4.440;2023-03-14T03:10:11;98810.06;;;10.20;100.00
69318;BME280;56457;52.190;4.440;2023-03-14T03:11:11;98818.66;;;10.26;100.00
69318;BME280;56457;52.190;4.440;2023-03-14T03:12:14;98811.66;;;10.24;100.00
69318;BME280;56457;52.190;4.440;2023-03-14T03:13:14;98789.97;;;10.21;100.00
69318;BME280;56457;52.190;4.440;2023-03-14T03:14:15;98814.28;;;10.24;100.00
69318;BME280;56457;52.190;4.440;2023-03-14T03:15:15;98809.16;;;10.21;100.00
69318;BME280;56457;52.190;4.440;2023-03-14T03:16:15;98819.63;;;10.21;100.00
69318;BME280;56457;52.190;4.440;2023-03-14T03:17:15;98812.00;;;10.15;100.00
69318;BME280;56457;52.190;4.440;2023-03-14T03:18:16;98804.91;;;10.19;100.00
69318;BME280;56457;52.190;4.440;2023-03-14T03:19:16;98815.22;;;10.23;100.00
69318;BME280;56457;52.190;4.440;2023-03-14T03:20:17;98812.69;;;10.20;100.00
69318;BME280;56457;52.190;4.440;2023-03-14T03:21:18;98807.38;;;10.22;100.00
69318;BME280;56457;52.190;4.440;2023-03-14T03:22:18;98814.41;;;10.21;100.00
69318;BME280;56457;52.190;4.440;2023-03-14T03:23:19;98803.13;;;10.19;100.00
69318;BME280;56457;52.190;4.440;2023-03-14T03:24:19;98805.69;;;10.21;100.00
69318;BME280;56457;52.190;4.440;2023-03-14T03:25:19;98811.03;;;10.18;100.00
69318;BME280;56457;52.190;4.440;2023-03-14T03:26:20;98812.69;;;10.20;100.00
69318;BME280;56457;52.190;4.440;2023-03-14T03:27:20;98815.22;;;10.23;100.00
69318;BME280;56457;52.190;4.440;2023-03-14T03:28:20;98813.63;;;10.19;100.00
69318;BME280;56457;52.190;4.440;2023-03-14T03:29:21;98805.59;;;10.24;100.00
69318;BME280;56457;52.190;4.440;2023-03-14T03:30:21;98805.59;;;10.24;100.00
69318;BME280;56457;52.190;4.440;2023-03-14T03:31:21;98807.25;;;10.27;100.00
69318;BME280;56457;52.190;4.440;2023-03-14T03:32:22;98807.38;;;10.22;100.00
69318;BME280;56457;52.190;4.440;2023-03-14T03:33:22;98805.53;;;10.26;100.00
69318;BME280;56457;52.190;4.440;2023-03-14T03:34:23;98796.63;;;10.30;100.00
69318;BME280;56457;52.190;4.440;2023-03-14T03:35:24;98805.34;;;10.30;100.00
69318;BME280;56457;52.190;4.440;2023-03-14T03:36:24;98793.78;;;10.36;100.00
69318;BME280;56457;52.190;4.440;2023-03-14T03:37:25;98798.22;;;10.34;100.00
69318;BME280;56457;52.190;4.440;2023-03-14T03:38:25;98791.28;;;10.33;100.00
69318;BME280;56457;52.190;4.440;2023-03-14T03:39:25;98799.00;;;10.36;100.00
69318;BME280;56457;52.190;4.440;2023-03-14T03:40:26;98792.25;;;10.30;100.00
69318;BME280;56457;52.190;4.440;2023-03-14T03:41:26;98799.31;;;10.28;100.00
69318;BME280;56457;52.190;4.440;2023-03-14T03:42:27;98801.09;;;10.28;100.00
69318;BME280;56457;52.190;4.440;2023-03-14T03:43:29;98794.00;;;10.30;100.00
69318;BME280;56457;52.190;4.440;2023-03-14T03:44:30;98805.25;;;10.33;100.00
69318;BME280;56457;52.190;4.440;2023-03-14T03:45:32;98811.34;;;10.34;100.00
69318;BME280;56457;52.190;4.440;2023-03-14T03:46:32;98793.09;;;10.31;100.00
69318;BME280;56457;52.190;4.440;2023-03-14T03:47:32;98807.25;;;10.27;100.00
69318;BME280;56457;52.190;4.440;2023-03-14T03:48:33;98806.44;;;10.24;100.00
69318;BME280;56457;52.190;4.440;2023-03-14T03:49:33;98811.78;;;10.21;100.00
69318;BME280;56457;52.190;4.440;2023-03-14T03:50:34;98809.06;;;10.24;100.00
69318;BME280;56457;52.190;4.440;2023-03-14T03:51:34;98816.03;;;10.26;100.00
69318;BME280;56457;52.190;4.440;2023-03-14T03:52:37;98811.66;;;10.24;100.00
69318;BME280;56457;52.190;4.440;2023-03-14T03:53:37;98822.13;;;10.26;100.00
69318;BME280;56457;52.190;4.440;2023-03-14T03:54:37;98815.31;;;10.20;100.00
69318;BME280;56457;52.190;4.440;2023-03-14T03:55:40;98815.13;;;10.27;100.00
69318;BME280;56457;52.190;4.440;2023-03-14T03:56:40;98817.84;;;10.23;100.00
69318;BME280;56457;52.190;4.440;2023-03-14T03:57:40;98822.25;;;10.21;100.00
69318;BME280;56457;52.190;4.440;2023-03-14T03:58:43;98823.19;;;10.20;100.00
69318;BME280;56457;52.190;4.440;2023-03-14T03:59:44;98821.50;;;10.18;100.00
69318;BME280;56457;52.190;4.440;2023-03-14T04:00:44;98833.75;;;10.17;100.00
69318;BME280;56457;52.190;4.440;2023-03-14T04:01:45;98839.19;;;10.13;100.00
69318;BME280;56457;52.190;4.440;2023-03-14T04:02:46;98837.69;;;10.06;100.00
69318;BME280;56457;52.190;4.440;2023-03-14T04:03:46;98851.09;;;9.98;100.00
69318;BME280;56457;52.190;4.440;2023-03-14T04:04:46;98842.53;;;9.93;100.00
69318;BME280;56457;52.190;4.440;2023-03-14T04:05:57;98848.00;;;9.87;100.00
69318;BME280;56457;52.190;4.440;2023-03-14T04:06:57;98860.47;;;9.80;100.00
69318;BME280;56457;52.190;4.440;2023-03-14T04:07:57;98856.19;;;9.78;100.00
69318;BME280;56457;52.190;4.440;2023-03-14T04:08:58;98857.22;;;9.74;100.00
69318;BME280;56457;52.190;4.440;2023-03-14T04:09:58;98844.19;;;9.72;100.00
69318;BME280;56457;52.190;4.440;2023-03-14T04:10:59;98854.88;;;9.66;100.00
69318;BME280;56457;52.190;4.440;2023-03-14T04:11:59;98853.16;;;9.65;100.00
69318;BME280;56457;52.190;4.440;2023-03-14T04:13:00;98849.69;;;9.64;100.00
69318;BME280;56457;52.190;4.440;2023-03-14T04:14:00;98855.09;;;9.60;100.00
69318;BME280;56457;52.190;4.440;2023-03-14T04:15:00;98848.00;;;9.63;100.00
69318;BME280;56457;52.190;4.440;2023-03-14T04:16:00;98855.16;;;9.58;100.00
69318;BME280;56457;52.190;4.440;2023-03-14T04:17:01;98862.19;;;9.56;100.00
69318;BME280;56457;52.190;4.440;2023-03-14T04:18:01;98850.00;;;9.55;100.00
69318;BME280;56457;52.190;4.440;2023-03-14T04:19:02;98864.88;;;9.55;100.00
69318;BME280;56457;52.190;4.440;2023-03-14T04:20:02;98862.41;;;9.50;100.00
69318;BME280;56457;52.190;4.440;2023-03-14T04:21:03;98859.03;;;9.47;100.00
69318;BME280;56457;52.190;4.440;2023-03-14T04:22:03;98866.09;;;9.44;100.00
69318;BME280;56457;52.190;4.440;2023-03-14T04:23:04;98858.47;;;9.38;100.00
69318;BME280;56457;52.190;4.440;2023-03-14T04:24:04;98855.88;;;9.37;100.00
69318;BME280;56457;52.190;4.440;2023-03-14T04:25:05;98860.44;;;9.32;100.00
69318;BME280;56457;52.190;4.440;2023-03-14T04:26:06;98858.63;;;9.34;100.00
69318;BME280;56457;52.190;4.440;2023-03-14T04:27:06;98857.69;;;9.35;100.00
69318;BME280;56457;52.190;4.440;2023-03-14T04:28:06;98871.75;;;9.32;100.00
69318;BME280;56457;52.190;4.440;2023-03-14T04:29:07;98867.47;;;9.30;100.00
69318;BME280;56457;52.190;4.440;2023-03-14T04:30:10;98857.91;;;9.29;100.00
69318;BME280;56457;52.190;4.440;2023-03-14T04:31:11;98871.00;;;9.29;100.00
69318;BME280;56457;52.190;4.440;2023-03-14T04:32:11;98869.28;;;9.28;100.00
69318;BME280;56457;52.190;4.440;2023-03-14T04:33:12;98870.09;;;9.30;100.00
69318;BME280;56457;52.190;4.440;2023-03-14T04:34:15;98870.91;;;9.32;100.00
69318;BME280;56457;52.190;4.440;2023-03-14T04:35:15;98866.63;;;9.29;100.00
69318;BME280;56457;52.190;4.440;2023-03-14T04:36:16;98855.28;;;9.29;100.00
69318;BME280;56457;52.190;4.440;2023-03-14T04:37:16;98865.88;;;9.26;100.00
69318;BME280;56457;52.190;4.440;2023-03-14T04:38:16;98859.75;;;9.27;100.00
69318;BME280;56457;52.190;4.440;2023-03-14T04:39:19;98862.50;;;9.22;100.00
69318;BME280;56457;52.190;4.440;2023-03-14T04:40:20;98864.13;;;9.26;100.00
69318;BME280;56457;52.190;4.440;2023-03-14T04:41:20;98863.22;;;9.27;100.00
69318;BME280;56457;52.190;4.440;2023-03-14T04:42:20;98858.81;;;9.28;100.00
69318;BME280;56457;52.190;4.440;2023-03-14T04:43:21;98858.88;;;9.26;100.00
69318;BME280;56457;52.190;4.440;2023-03-14T04:44:21;98858.06;;;9.24;100.00
69318;BME280;56457;52.190;4.440;2023-03-14T04:45:21;98863.25;;;9.26;100.00
69318;BME280;56457;52.190;4.440;2023-03-14T04:46:22;98858.03;;;9.26;100.00
69318;BME280;56457;52.190;4.440;2023-03-14T04:47:22;98872.91;;;9.24;100.00
69318;BME280;56457;52.190;4.440;2023-03-14T04:48:23;98865.19;;;9.21;100.00
69318;BME280;56457;52.190;4.440;2023-03-14T04:49:23;98866.81;;;9.23;100.00
69318;BME280;56457;52.190;4.440;2023-03-14T04:50:24;98863.28;;;9.24;100.00
69318;BME280;56457;52.190;4.440;2023-03-14T04:51:24;98870.34;;;9.22;100.00
69318;BME280;56457;52.190;4.440;2023-03-14T04:52:27;98858.06;;;9.24;100.00
69318;BME280;56457;52.190;4.440;2023-03-14T04:53:27;98864.97;;;9.27;100.00
69318;BME280;56457;52.190;4.440;2023-03-14T04:54:27;98858.03;;;9.26;100.00
69318;BME280;56457;52.190;4.440;2023-03-14T04:55:28;98865.97;;;9.23;100.00
69318;BME280;56457;52.190;4.440;2023-03-14T04:56:28;98866.94;;;9.20;100.00
69318;BME280;56457;52.190;4.440;2023-03-14T04:57:28;98872.19;;;9.18;100.00
69318;BME280;56457;52.190;4.440;2023-03-14T04:58:29;98867.03;;;9.17;100.00
69318;BME280;56457;52.190;4.440;2023-03-14T04:59:29;98867.03;;;9.17;100.00
69318;BME280;56457;52.190;4.440;2023-03-14T05:00:29;98872.19;;;9.18;100.00
69318;BME280;56457;52.190;4.440;2023-03-14T05:01:30;98874.81;;;9.18;100.00
69318;BME280;56457;52.190;4.440;2023-03-14T05:02:30;98861.84;;;9.15;100.00
69318;BME280;56457;52.190;4.440;2023-03-14T05:03:30;98865.44;;;9.13;100.00
69318;BME280;56457;52.190;4.440;2023-03-14T05:04:31;98868.00;;;9.14;100.00
69318;BME280;56457;52.190;4.440;2023-03-14T05:05:32;98879.31;;;9.15;100.00
69318;BME280;56457;52.190;4.440;2023-03-14T05:06:33;98875.78;;;9.16;100.00
69318;BME280;56457;52.190;4.440;2023-03-14T05:07:33;98880.22;;;9.14;100.00
69318;BME280;56457;52.190;4.440;2023-03-14T05:08:33;98872.38;;;9.14;100.00
69318;BME280;56457;52.190;4.440;2023-03-14T05:09:34;98884.53;;;9.15;100.00
69318;BME280;56457;52.190;4.440;2023-03-14T05:10:34;98881.13;;;9.13;100.00
69318;BME280;56457;52.190;4.440;2023-03-14T05:11:37;98897.88;;;9.07;100.00
69318;BME280;56457;52.190;4.440;2023-03-14T05:12:37;98897.91;;;9.06;100.00
69318;BME280;56457;52.190;4.440;2023-03-14T05:13:38;98896.25;;;9.03;100.00
69318;BME280;56457;52.190;4.440;2023-03-14T05:14:38;98899.03;;;8.99;100.00
69318;BME280;56457;52.190;4.440;2023-03-14T05:15:39;98896.53;;;8.96;100.00
69318;BME280;56457;52.190;4.440;2023-03-14T05:16:39;98914.09;;;8.90;100.00
69318;BME280;56457;52.190;4.440;2023-03-14T05:17:40;98917.78;;;8.85;100.00
69318;BME280;56457;52.190;4.440;2023-03-14T05:18:40;98914.44;;;8.80;100.00
69318;BME280;56457;52.190;4.440;2023-03-14T05:19:41;98930.25;;;8.75;100.00
69318;BME280;56457;52.190;4.440;2023-03-14T05:20:41;98935.13;;;8.59;100.00
69318;BME280;56457;52.190;4.440;2023-03-14T05:21:43;98926.84;;;8.45;100.00
69318;BME280;56457;52.190;4.440;2023-03-14T05:22:43;98934.84;;;8.39;100.00
69318;BME280;56457;52.190;4.440;2023-03-14T05:23:43;98938.50;;;8.32;100.00
69318;BME280;56457;52.190;4.440;2023-03-14T05:24:44;98933.72;;;8.17;100.00
69318;BME280;56457;52.190;4.440;2023-03-14T05:25:44;98933.09;;;8.08;100.00
69318;BME280;56457;52.190;4.440;2023-03-14T05:26:47;98937.56;;;8.03;100.00
69318;BME280;56457;52.190;4.440;2023-03-14T05:27:48;98938.75;;;7.92;100.00
69318;BME280;56457;52.190;4.440;2023-03-14T05:28:48;98954.44;;;7.92;100.00